Time;durP1;ratioP1;P1;durP2;ratioP2;P2;SDS_P1;SDS_P2;PMS_P1;PMS_P2;Temp;Humidity;BMP_temperature;BMP_pressure;BME280_temperature;BME280_humidity;BME280_pressure;Samples;Min_cycle;Max_cycle;Signal;HPM_P1;HPM_P2
2022/03/05 00:01:16;;;;;;;22.13;10.85;;;1.60;40.50;;;;;;5037299;28;20207;-74
2022/03/05 00:03:43;;;;;;;17.48;10.05;;;1.50;39.70;;;;;;5036980;28;20234;-75
2022/03/05 00:06:11;;;;;;;22.58;11.05;;;1.50;40.10;;;;;;5037482;28;20238;-74
2022/03/05 00:08:38;;;;;;;17.15;10.02;;;1.50;40.30;;;;;;5037371;28;20207;-75
2022/03/05 00:11:05;;;;;;;20.15;9.57;;;1.50;40.80;;;;;;5036495;28;20285;-76
2022/03/05 00:13:32;;;;;;;16.58;9.77;;;1.50;40.40;;;;;;5037963;28;20294;-75
2022/03/05 00:15:59;;;;;;;18.85;10.02;;;1.40;40.60;;;;;;5041689;28;20211;-75
2022/03/05 00:18:27;;;;;;;16.42;9.57;;;1.30;41.00;;;;;;5039999;28;20253;-75
2022/03/05 00:20:54;;;;;;;21.77;10.63;;;1.30;41.10;;;;;;5040429;28;20216;-75
2022/03/05 00:23:22;;;;;;;16.27;9.43;;;1.30;41.00;;;;;;5045030;28;20305;-75
2022/03/05 00:25:49;;;;;;;18.05;9.80;;;1.30;40.90;;;;;;5044737;28;20310;-74
2022/03/05 00:28:17;;;;;;;17.75;9.93;;;1.30;40.70;;;;;;5047889;28;20230;-74
2022/03/05 00:30:45;;;;;;;18.20;9.77;;;1.30;40.30;;;;;;5047133;28;20275;-74
2022/03/05 00:33:11;;;;;;;18.90;10.05;;;1.40;40.30;;;;;;5047073;28;20231;-74
2022/03/05 00:35:39;;;;;;;17.77;9.65;;;1.30;40.10;;;;;;5041818;28;20211;-74
2022/03/05 00:38:06;;;;;;;18.23;9.20;;;1.30;40.30;;;;;;5044155;28;20215;-74
2022/03/05 00:40:34;;;;;;;20.30;9.32;;;1.30;40.40;;;;;;5044315;28;20203;-76
2022/03/05 00:43:01;;;;;;;19.02;9.48;;;1.20;40.50;;;;;;5040574;28;20237;-75
2022/03/05 00:45:28;;;;;;;19.63;9.60;;;1.20;41.00;;;;;;5043792;28;20251;-75
2022/03/05 00:47:55;;;;;;;18.40;10.52;;;1.10;41.10;;;;;;5049588;28;20212;-74
2022/03/05 00:50:22;;;;;;;20.88;11.10;;;1.10;41.20;;;;;;5045954;28;20204;-74
2022/03/05 00:55:26;;;;;;;19.20;10.27;;;1.10;41.20;;;;;;5014695;28;20223;-75
2022/03/05 00:57:54;;;;;;;21.77;10.70;;;1.10;41.10;;;;;;5015855;28;20227;-74
2022/03/05 01:00:21;;;;;;;18.52;10.93;;;1.10;40.90;;;;;;5022276;28;20258;-75
2022/03/05 01:02:48;;;;;;;18.55;10.00;;;1.00;40.90;;;;;;5027359;28;20215;-74
2022/03/05 01:05:14;;;;;;;19.48;11.15;;;1.10;41.00;;;;;;5019811;28;20240;-74
2022/03/05 01:07:41;;;;;;;17.50;10.40;;;1.00;40.90;;;;;;5019817;28;20706;-73
2022/03/05 01:10:09;;;;;;;16.25;10.82;;;1.00;41.10;;;;;;5026860;28;20619;-73
2022/03/05 01:12:36;;;;;;;23.33;11.35;;;1.00;41.20;;;;;;5027259;28;20667;-74
2022/03/05 01:15:06;;;;;;;21.95;11.50;;;1.00;41.40;;;;;;5022251;28;20546;-75
2022/03/05 01:17:33;;;;;;;15.70;9.73;;;0.90;41.40;;;;;;5019689;28;20235;-74
2022/03/05 01:20:00;;;;;;;18.10;10.40;;;0.90;41.20;;;;;;5021529;28;20304;-73
2022/03/05 01:22:27;;;;;;;17.52;9.88;;;0.90;41.40;;;;;;5020734;28;20287;-75
2022/03/05 01:24:54;;;;;;;19.70;10.70;;;0.90;41.30;;;;;;5022137;28;20315;-74
2022/03/05 01:27:22;;;;;;;18.52;10.05;;;0.90;41.20;;;;;;5023487;28;20632;-75
2022/03/05 01:29:49;;;;;;;18.25;11.10;;;0.90;41.30;;;;;;5019551;28;20215;-75
2022/03/05 01:32:17;;;;;;;16.60;10.13;;;0.90;41.50;;;;;;5020656;28;20209;-75
2022/03/05 01:34:44;;;;;;;18.15;10.35;;;0.90;41.20;;;;;;5022463;28;20301;-75
2022/03/05 01:37:11;;;;;;;15.93;8.52;;;0.90;41.10;;;;;;5020463;28;20303;-74
2022/03/05 01:39:38;;;;;;;19.17;10.98;;;0.80;41.40;;;;;;5020469;28;20710;-75
2022/03/05 01:42:05;;;;;;;17.92;10.38;;;0.80;41.50;;;;;;5021787;28;20208;-74
2022/03/05 01:44:32;;;;;;;20.95;9.20;;;0.80;41.50;;;;;;5030850;28;20322;-73
2022/03/05 01:47:02;;;;;;;21.35;10.75;;;0.80;41.20;;;;;;5029799;28;20193;-75
2022/03/05 01:49:30;;;;;;;17.52;10.55;;;0.80;41.80;;;;;;5031366;28;20236;-75
2022/03/05 01:51:58;;;;;;;20.58;10.45;;;0.80;42.20;;;;;;5026502;28;20208;-74
2022/03/05 01:54:25;;;;;;;16.83;10.48;;;0.70;41.90;;;;;;5020581;28;20228;-75
2022/03/05 01:56:53;;;;;;;19.65;10.30;;;0.70;42.10;;;;;;5021729;28;20200;-74
2022/03/05 01:59:20;;;;;;;15.40;9.50;;;0.70;42.10;;;;;;5024543;28;20231;-75
2022/03/05 02:01:46;;;;;;;15.38;9.50;;;0.70;42.10;;;;;;5018704;28;20216;-75
2022/03/05 02:04:13;;;;;;;16.73;9.40;;;0.70;42.10;;;;;;5025730;28;20228;-74
2022/03/05 02:06:42;;;;;;;26.38;10.88;;;0.70;42.10;;;;;;5029693;28;20228;-75
2022/03/05 02:09:09;;;;;;;21.77;10.70;;;0.60;42.10;;;;;;5029471;28;20204;-74
2022/03/05 02:11:36;;;;;;;20.75;10.95;;;0.60;42.10;;;;;;5029791;28;20208;-75
2022/03/05 02:14:03;;;;;;;17.17;10.20;;;0.60;42.10;;;;;;5030205;28;20257;-74
2022/03/05 02:16:30;;;;;;;16.35;9.75;;;0.60;42.00;;;;;;5030553;28;20228;-74
2022/03/05 02:18:57;;;;;;;19.35;9.82;;;0.60;42.10;;;;;;5031445;28;20284;-74
2022/03/05 02:21:26;;;;;;;15.18;9.63;;;0.60;42.10;;;;;;5029481;28;20208;-75
2022/03/05 02:23:54;;;;;;;17.45;9.70;;;0.60;42.10;;;;;;5029686;28;20695;-75
2022/03/05 02:26:22;;;;;;;19.80;9.68;;;0.60;42.10;;;;;;5031850;28;20288;-73
2022/03/05 02:28:49;;;;;;;18.13;9.27;;;0.60;42.10;;;;;;5033827;28;20210;-74
2022/03/05 02:31:16;;;;;;;17.52;10.27;;;0.50;41.90;;;;;;5029938;28;20219;-75
2022/03/05 02:33:43;;;;;;;14.07;9.23;;;0.50;42.00;;;;;;5025673;28;20224;-74
2022/03/05 02:36:10;;;;;;;19.50;9.82;;;0.50;42.00;;;;;;5023864;28;20258;-75
2022/03/05 02:38:38;;;;;;;15.20;10.02;;;0.50;42.00;;;;;;5021586;28;20725;-75
2022/03/05 02:41:06;;;;;;;14.88;8.07;;;0.50;42.00;;;;;;5019011;28;20266;-74
2022/03/05 02:43:32;;;;;;;18.27;9.75;;;0.50;42.70;;;;;;5019485;28;20258;-75
2022/03/05 02:45:59;;;;;;;14.27;9.07;;;0.50;42.00;;;;;;5019398;28;20228;-76
2022/03/05 02:48:26;;;;;;;16.85;10.65;;;0.50;42.00;;;;;;5017238;28;20709;-75
2022/03/05 02:50:53;;;;;;;15.23;8.90;;;0.40;41.90;;;;;;5017416;28;20212;-74
2022/03/05 02:53:20;;;;;;;18.52;9.65;;;0.40;42.30;;;;;;5019080;28;20338;-74
2022/03/05 02:55:49;;;;;;;16.88;9.20;;;0.40;42.00;;;;;;5024968;28;20219;-75
2022/03/05 02:58:16;;;;;;;16.13;9.75;;;0.40;42.20;;;;;;5028196;28;20214;-74
2022/03/05 03:00:43;;;;;;;17.70;10.52;;;0.40;41.90;;;;;;5023909;28;20219;-73
2022/03/05 03:03:10;;;;;;;19.38;9.73;;;0.40;41.90;;;;;;5024895;28;20232;-75
2022/03/05 03:05:37;;;;;;;16.27;8.65;;;0.50;42.00;;;;;;5024098;28;20240;-74
2022/03/05 03:08:04;;;;;;;17.25;9.93;;;0.50;41.90;;;;;;5018120;28;20299;-74
2022/03/05 03:10:31;;;;;;;14.68;9.02;;;0.50;42.00;;;;;;5015206;28;20215;-75
2022/03/05 03:13:00;;;;;;;14.55;8.98;;;0.40;41.90;;;;;;5015743;28;20571;-75
2022/03/05 03:15:27;;;;;;;14.20;7.72;;;0.40;41.90;;;;;;5021755;28;20227;-74
2022/03/05 03:17:54;;;;;;;13.07;8.25;;;0.40;42.30;;;;;;5018316;28;20656;-74
2022/03/05 03:20:22;;;;;;;12.43;8.32;;;0.30;42.40;;;;;;5014978;28;20212;-74
2022/03/05 03:22:50;;;;;;;16.83;9.63;;;0.30;42.70;;;;;;5013898;28;20207;-74
2022/03/05 03:25:17;;;;;;;11.57;8.27;;;0.30;42.90;;;;;;5019459;28;20208;-74
2022/03/05 03:27:44;;;;;;;16.67;10.15;;;0.30;42.60;;;;;;5021009;28;20212;-74
2022/03/05 03:30:14;;;;;;;16.55;9.27;;;0.30;42.90;;;;;;5022291;28;20659;-74
2022/03/05 03:32:42;;;;;;;19.13;10.15;;;0.20;43.30;;;;;;5016142;28;20208;-75
2022/03/05 03:35:10;;;;;;;17.05;9.55;;;0.20;43.50;;;;;;5015354;28;20628;-74
2022/03/05 03:37:37;;;;;;;18.02;10.50;;;0.10;43.70;;;;;;5015274;28;20554;-74
2022/03/05 03:40:07;;;;;;;16.70;9.60;;;0.10;43.90;;;;;;5015293;28;20271;-74
2022/03/05 03:42:36;;;;;;;17.25;9.88;;;0.10;44.00;;;;;;5014097;28;20211;-74
2022/03/05 03:45:03;;;;;;;12.40;8.75;;;0.10;44.20;;;;;;5013467;28;20231;-75
2022/03/05 03:47:32;;;;;;;14.90;8.68;;;0.10;44.30;;;;;;5014952;28;20238;-73
2022/03/05 03:49:59;;;;;;;16.25;9.23;;;0.00;44.30;;;;;;5013343;28;20222;-73
2022/03/05 03:52:25;;;;;;;18.05;9.40;;;0.10;44.40;;;;;;5012804;28;20218;-73
2022/03/05 03:54:52;;;;;;;14.43;9.93;;;0.00;44.50;;;;;;5012630;28;20334;-75
2022/03/05 03:57:19;;;;;;;15.70;9.85;;;0.00;44.70;;;;;;5012815;28;20299;-74
2022/03/05 03:59:47;;;;;;;16.38;9.10;;;0.00;44.70;;;;;;5013060;28;20212;-75
2022/03/05 04:02:14;;;;;;;16.33;9.57;;;0.00;44.80;;;;;;5012970;28;20231;-75
2022/03/05 04:04:42;;;;;;;15.52;9.63;;;-0.10;45.00;;;;;;5012131;28;20322;-75
2022/03/05 04:09:54;;;;;;;19.23;10.02;;;-0.10;45.50;;;;;;5012526;28;20235;-74
2022/03/05 04:12:21;;;;;;;16.52;9.90;;;-0.10;45.70;;;;;;5012185;28;20204;-74
2022/03/05 04:14:48;;;;;;;13.45;7.93;;;-0.10;45.70;;;;;;5012530;28;20323;-75
2022/03/05 04:17:15;;;;;;;19.10;9.57;;;-0.10;45.80;;;;;;5015596;28;20248;-75
2022/03/05 04:19:44;;;;;;;17.77;10.20;;;-0.10;45.80;;;;;;5016207;28;20214;-74
2022/03/05 04:22:11;;;;;;;19.02;9.55;;;-0.10;46.00;;;;;;5015878;28;20224;-74
2022/03/05 04:24:38;;;;;;;18.30;9.82;;;-0.10;46.10;;;;;;5016226;28;20318;-74
2022/03/05 04:27:05;;;;;;;15.02;8.68;;;-0.20;46.10;;;;;;5015869;28;20227;-74
2022/03/05 04:29:31;;;;;;;17.25;9.05;;;-0.10;46.20;;;;;;5023403;28;20210;-74
2022/03/05 04:31:58;;;;;;;14.65;8.43;;;-0.20;46.10;;;;;;5021735;28;20208;-74
2022/03/05 04:34:25;;;;;;;16.48;8.95;;;-0.20;46.10;;;;;;5016710;28;20323;-73
2022/03/05 04:36:53;;;;;;;16.00;9.77;;;-0.10;46.20;;;;;;5015625;28;20290;-73
2022/03/05 04:39:20;;;;;;;14.23;8.93;;;-0.10;46.20;;;;;;5016051;28;20244;-75
2022/03/05 04:41:47;;;;;;;18.38;10.35;;;-0.10;46.00;;;;;;5016064;28;20575;-74
2022/03/05 04:44:14;;;;;;;15.80;9.07;;;-0.10;45.80;;;;;;5017588;28;20236;-74
2022/03/05 04:46:41;;;;;;;18.98;8.98;;;-0.10;45.80;;;;;;5024908;28;20228;-74
2022/03/05 04:49:08;;;;;;;17.02;9.40;;;-0.10;45.70;;;;;;5020447;28;20292;-74
2022/03/05 04:51:35;;;;;;;13.13;8.07;;;-0.10;45.70;;;;;;5016619;28;20231;-74
2022/03/05 04:54:04;;;;;;;15.55;9.50;;;-0.10;46.00;;;;;;5022513;28;20255;-75
2022/03/05 04:56:31;;;;;;;18.95;9.57;;;-0.10;45.90;;;;;;5023987;28;20204;-73
2022/03/05 04:58:57;;;;;;;15.70;9.90;;;-0.10;46.20;;;;;;5025101;28;20212;-73
2022/03/05 05:01:24;;;;;;;15.75;8.77;;;-0.30;46.90;;;;;;5022547;28;20271;-74
2022/03/05 05:03:51;;;;;;;18.73;9.57;;;-0.40;48.10;;;;;;5018501;28;20228;-74
2022/03/05 05:06:18;;;;;;;16.83;10.02;;;-0.50;48.70;;;;;;5016426;28;20719;-75
2022/03/05 05:08:45;;;;;;;22.45;10.45;;;-0.60;50.40;;;;;;5015787;28;20304;-74
2022/03/05 05:11:13;;;;;;;19.20;10.63;;;-0.80;50.30;;;;;;5014835;28;20212;-73
2022/03/05 05:13:40;;;;;;;18.92;9.85;;;-0.90;51.90;;;;;;5015647;28;20315;-74
2022/03/05 05:16:07;;;;;;;21.15;10.60;;;-0.90;52.90;;;;;;5015207;28;20212;-74
2022/03/05 05:18:34;;;;;;;18.65;9.70;;;-0.90;53.30;;;;;;5014469;28;20680;-74
2022/03/05 05:21:02;;;;;;;17.83;9.75;;;-1.00;54.10;;;;;;5014258;28;20258;-73
2022/03/05 05:23:29;;;;;;;20.23;9.90;;;-1.00;54.70;;;;;;5015868;28;20295;-75
2022/03/05 05:25:56;;;;;;;15.52;8.90;;;-1.10;54.90;;;;;;5015957;28;20243;-74
2022/03/05 05:28:24;;;;;;;16.98;9.30;;;-1.20;56.20;;;;;;5015084;28;20210;-74
2022/03/05 05:30:51;;;;;;;18.15;10.25;;;-1.20;56.70;;;;;;5015145;28;20212;-74
2022/03/05 05:33:19;;;;;;;16.73;8.82;;;-1.20;57.50;;;;;;5016109;28;20712;-74
2022/03/05 05:35:47;;;;;;;14.75;9.98;;;-1.20;57.60;;;;;;5018654;28;20208;-76
2022/03/05 05:38:14;;;;;;;17.35;9.45;;;-1.30;58.50;;;;;;5018852;28;20222;-75
2022/03/05 05:40:40;;;;;;;16.13;9.38;;;-1.30;59.00;;;;;;5016322;28;20246;-73
2022/03/05 05:43:07;;;;;;;16.30;9.15;;;-1.30;59.00;;;;;;5016769;28;20695;-73
2022/03/05 05:45:36;;;;;;;17.75;9.60;;;-1.40;58.90;;;;;;5016915;28;20215;-74
2022/03/05 05:48:02;;;;;;;19.17;9.98;;;-1.40;58.90;;;;;;5017887;28;20228;-74
2022/03/05 05:50:30;;;;;;;16.08;9.27;;;-1.40;59.20;;;;;;5017065;28;20219;-75
2022/03/05 05:52:56;;;;;;;17.25;8.95;;;-1.40;59.80;;;;;;5016416;28;20262;-74
2022/03/05 05:55:23;;;;;;;16.50;9.05;;;-1.40;59.80;;;;;;5016341;28;20223;-73
2022/03/05 05:57:50;;;;;;;18.42;10.10;;;-1.40;60.20;;;;;;5017263;28;20208;-74
2022/03/05 06:00:17;;;;;;;16.05;10.20;;;-1.40;60.40;;;;;;5015987;28;20210;-73
2022/03/05 06:02:46;;;;;;;20.63;10.13;;;-1.40;61.30;;;;;;5017748;28;20652;-74
2022/03/05 06:05:13;;;;;;;18.50;9.82;;;-1.40;60.90;;;;;;5016436;28;20303;-73
2022/03/05 06:07:39;;;;;;;17.77;9.77;;;-1.40;60.60;;;;;;5016269;28;20315;-74
2022/03/05 06:10:07;;;;;;;17.35;9.57;;;-1.40;60.80;;;;;;5018312;28;20257;-74
2022/03/05 06:12:34;;;;;;;17.88;10.52;;;-1.40;61.10;;;;;;5013701;28;20707;-74
2022/03/05 06:15:03;;;;;;;22.50;10.13;;;-1.40;61.10;;;;;;5014426;28;20315;-74
2022/03/05 06:17:30;;;;;;;20.95;9.90;;;-1.30;61.20;;;;;;5015116;28;20287;-74
2022/03/05 06:19:58;;;;;;;20.10;10.00;;;-1.30;60.70;;;;;;5015712;28;20275;-74
2022/03/05 06:22:25;;;;;;;18.52;9.80;;;-1.30;60.80;;;;;;5017880;28;20208;-74
2022/03/05 06:24:52;;;;;;;16.83;9.40;;;-1.30;60.40;;;;;;5016347;28;20802;-73
2022/03/05 06:27:19;;;;;;;16.52;9.43;;;-1.20;60.20;;;;;;5015027;28;20315;-74
2022/03/05 06:29:46;;;;;;;15.10;9.27;;;-1.20;59.90;;;;;;5015235;28;20208;-74
2022/03/05 06:32:13;;;;;;;14.57;8.60;;;-1.10;59.80;;;;;;5014285;28;20254;-73
2022/03/05 06:34:40;;;;;;;16.50;9.80;;;-1.10;59.20;;;;;;5014844;28;20232;-73
2022/03/05 06:37:08;;;;;;;17.00;9.82;;;-1.10;59.20;;;;;;5014293;28;20682;-74
2022/03/05 06:39:35;;;;;;;16.42;9.25;;;-1.00;59.20;;;;;;5013519;28;20207;-74
2022/03/05 06:42:02;;;;;;;19.40;9.55;;;-1.00;59.20;;;;;;5013163;28;20247;-74
2022/03/05 06:44:31;;;;;;;20.88;10.00;;;-1.00;59.20;;;;;;5013041;28;20342;-73
2022/03/05 06:46:58;;;;;;;15.70;9.93;;;-1.00;59.20;;;;;;5013331;28;20240;-74
2022/03/05 06:49:25;;;;;;;19.25;10.05;;;-0.90;58.80;;;;;;5013388;28;20208;-74
2022/03/05 06:51:51;;;;;;;17.35;9.30;;;-0.80;58.40;;;;;;5012987;28;20236;-74
2022/03/05 06:54:20;;;;;;;18.25;9.40;;;-0.80;58.20;;;;;;5037560;22;20345;-74
2022/03/05 06:56:47;;;;;;;19.20;10.65;;;-0.80;57.70;;;;;;5035127;28;20203;-74
2022/03/05 06:59:14;;;;;;;18.05;8.95;;;-0.70;57.30;;;;;;5034740;28;20299;-74
2022/03/05 07:01:41;;;;;;;18.23;9.48;;;-0.70;57.00;;;;;;5034328;28;20214;-75
2022/03/05 07:04:08;;;;;;;18.52;10.18;;;-0.60;56.40;;;;;;5034510;28;20235;-74
2022/03/05 07:06:37;;;;;;;21.67;9.75;;;-0.50;56.30;;;;;;5036288;28;20707;-75
2022/03/05 07:09:04;;;;;;;21.05;10.40;;;-0.40;55.50;;;;;;5036599;28;20293;-75
2022/03/05 07:11:33;;;;;;;17.45;9.38;;;-0.40;55.20;;;;;;5035468;28;20302;-74
2022/03/05 07:14:00;;;;;;;17.17;10.18;;;-0.30;53.50;;;;;;5034899;28;20219;-74
2022/03/05 07:16:28;;;;;;;15.18;9.23;;;-0.20;53.10;;;;;;5035848;28;20214;-75
2022/03/05 07:18:56;;;;;;;15.27;9.38;;;0.00;51.00;;;;;;5034684;28;20275;-75
2022/03/05 07:21:23;;;;;;;14.57;9.65;;;0.10;51.00;;;;;;5034655;28;20238;-74
2022/03/05 07:23:50;;;;;;;17.13;10.13;;;0.30;49.40;;;;;;5040956;28;20227;-75
2022/03/05 07:26:17;;;;;;;15.82;9.32;;;0.30;49.10;;;;;;5038152;28;20302;-75
2022/03/05 07:28:46;;;;;;;16.25;8.98;;;0.40;48.50;;;;;;5034811;28;20211;-75
2022/03/05 07:31:13;;;;;;;16.30;9.40;;;0.50;47.60;;;;;;5034266;28;20247;-75
2022/03/05 07:33:40;;;;;;;20.02;10.90;;;0.50;47.60;;;;;;5035217;28;20329;-74
2022/03/05 07:36:07;;;;;;;19.45;9.60;;;0.60;47.10;;;;;;5035778;28;20203;-74
2022/03/05 07:38:34;;;;;;;17.65;10.38;;;0.70;46.90;;;;;;5035436;28;20235;-74
2022/03/05 07:41:01;;;;;;;20.92;11.65;;;0.70;46.70;;;;;;5035479;28;20473;-75
2022/03/05 07:43:28;;;;;;;20.05;9.73;;;0.80;46.00;;;;;;5035694;28;20227;-75
2022/03/05 07:45:56;;;;;;;18.30;10.70;;;0.90;45.80;;;;;;5035086;28;20212;-75
2022/03/05 07:48:23;;;;;;;18.13;10.13;;;1.00;45.30;;;;;;5034287;28;20227;-75
2022/03/05 07:50:51;;;;;;;16.58;9.40;;;1.00;45.10;;;;;;5036300;28;20651;-75
2022/03/05 07:53:18;;;;;;;18.05;10.75;;;1.10;45.10;;;;;;5039746;28;20207;-75
2022/03/05 07:55:46;;;;;;;17.80;9.95;;;1.10;45.20;;;;;;5048081;28;20211;-76
2022/03/05 07:58:13;;;;;;;15.85;9.25;;;1.20;44.60;;;;;;5052019;28;20204;-76
2022/03/05 08:00:40;;;;;;;17.85;9.98;;;1.30;44.90;;;;;;5054919;28;20207;-74
2022/03/05 08:03:08;;;;;;;20.52;10.57;;;1.30;44.90;;;;;;5057599;28;20204;-75
2022/03/05 08:05:35;;;;;;;17.92;10.00;;;1.30;44.80;;;;;;5056661;28;20259;-75
2022/03/05 08:08:02;;;;;;;21.45;11.35;;;1.40;44.40;;;;;;5051971;28;20227;-75
2022/03/05 08:10:29;;;;;;;20.33;10.20;;;1.50;44.50;;;;;;5042927;28;20235;-74
2022/03/05 08:12:56;;;;;;;16.48;10.65;;;1.60;44.20;;;;;;5057378;28;20207;-75
2022/03/05 08:15:23;;;;;;;18.23;10.15;;;1.70;44.00;;;;;;5053978;28;20250;-76
2022/03/05 08:17:52;;;;;;;18.13;11.38;;;1.80;43.10;;;;;;5027835;28;20263;-74
2022/03/05 08:20:21;;;;;;;23.77;11.48;;;1.90;43.20;;;;;;5026622;28;20608;-75
2022/03/05 08:22:48;;;;;;;21.98;10.65;;;2.00;43.30;;;;;;5019332;28;20212;-74
2022/03/05 08:25:15;;;;;;;21.77;10.32;;;2.20;42.70;;;;;;5017938;28;20236;-74
2022/03/05 08:27:43;;;;;;;27.38;11.05;;;2.30;42.20;;;;;;5033090;28;20391;-75
2022/03/05 08:30:12;;;;;;;18.95;9.70;;;2.40;41.10;;;;;;5037842;28;20196;-76
2022/03/05 08:32:39;;;;;;;16.20;9.80;;;2.50;40.60;;;;;;5040089;28;20326;-74
2022/03/05 08:35:08;;;;;;;16.00;9.98;;;2.60;39.40;;;;;;5031820;28;20219;-75
2022/03/05 08:37:37;;;;;;;16.73;10.43;;;2.50;39.20;;;;;;5047218;28;20208;-75
2022/03/05 08:40:06;;;;;;;15.68;9.98;;;2.60;39.00;;;;;;5052485;28;20228;-75
2022/03/05 08:42:34;;;;;;;17.02;10.23;;;2.60;39.00;;;;;;5045069;28;20204;-74
2022/03/05 08:45:01;;;;;;;16.80;10.55;;;2.80;39.10;;;;;;5031999;28;20226;-76
2022/03/05 08:47:28;;;;;;;18.27;11.38;;;3.00;38.20;;;;;;5035320;28;20314;-75
2022/03/05 08:49:55;;;;;;;17.60;10.52;;;3.10;37.60;;;;;;5042516;28;20203;-74
2022/03/05 08:52:22;;;;;;;16.50;10.70;;;3.10;37.20;;;;;;5039865;28;20291;-74
2022/03/05 08:54:50;;;;;;;19.30;10.68;;;3.30;36.60;;;;;;5039083;28;20767;-75
2022/03/05 08:57:17;;;;;;;19.80;11.48;;;3.50;36.20;;;;;;5039444;28;20229;-75
2022/03/05 08:59:44;;;;;;;22.90;12.35;;;3.70;35.00;;;;;;5041712;28;20247;-74
2022/03/05 09:02:12;;;;;;;20.35;12.23;;;3.80;35.10;;;;;;5042971;28;20285;-74
2022/03/05 09:04:41;;;;;;;18.85;11.63;;;4.00;35.30;;;;;;5045407;28;20219;-74
2022/03/05 09:07:08;;;;;;;18.23;11.20;;;4.10;33.70;;;;;;5038173;28;20211;-74
2022/03/05 09:09:35;;;;;;;21.02;12.10;;;3.90;33.60;;;;;;5025609;28;20201;-74
2022/03/05 09:12:05;;;;;;;17.10;10.13;;;4.10;33.90;;;;;;5040245;28;20213;-74
2022/03/05 09:14:32;;;;;;;17.40;11.50;;;4.30;32.90;;;;;;5041460;28;20678;-75
2022/03/05 09:16:59;;;;;;;17.42;10.73;;;4.50;32.60;;;;;;5040591;28;20213;-75
2022/03/05 09:19:26;;;;;;;15.98;9.98;;;4.70;32.40;;;;;;5046228;28;20601;-75
2022/03/05 09:21:53;;;;;;;17.85;10.88;;;4.80;32.10;;;;;;5045552;28;20209;-74
2022/03/05 09:24:20;;;;;;;18.13;11.18;;;4.70;31.90;;;;;;5044345;28;20331;-74
2022/03/05 09:26:46;;;;;;;17.63;9.95;;;4.60;32.20;;;;;;5042943;28;20212;-75
2022/03/05 09:29:15;;;;;;;19.60;12.27;;;4.80;31.90;;;;;;5042948;28;20595;-75
2022/03/05 09:31:42;;;;;;;19.27;12.75;;;4.70;32.00;;;;;;5043695;28;20213;-74
2022/03/05 09:34:09;;;;;;;17.27;11.35;;;4.70;32.00;;;;;;5043633;28;20253;-75
2022/03/05 09:36:36;;;;;;;19.52;12.25;;;4.60;31.80;;;;;;5048195;28;20196;-76
2022/03/05 09:39:03;;;;;;;20.02;12.35;;;4.60;31.60;;;;;;5041611;28;20616;-73
2022/03/05 09:41:30;;;;;;;17.67;10.68;;;4.70;30.90;;;;;;5039063;28;20235;-73
2022/03/05 09:43:57;;;;;;;19.63;11.15;;;4.80;30.80;;;;;;5039417;28;20331;-73
2022/03/05 09:46:27;;;;;;;16.45;10.10;;;4.80;30.10;;;;;;5036263;28;20200;-74
2022/03/05 09:48:54;;;;;;;17.88;9.80;;;4.90;29.80;;;;;;5035437;28;20850;-73
2022/03/05 09:51:22;;;;;;;18.08;10.55;;;4.90;29.60;;;;;;5035123;28;20300;-74
2022/03/05 09:53:54;;;;;;;15.02;9.98;;;5.10;29.10;;;;;;5034251;28;20243;-74
2022/03/05 09:56:20;;;;;;;16.90;10.57;;;4.90;29.40;;;;;;5035298;28;20196;-74
2022/03/05 09:58:48;;;;;;;15.60;10.20;;;5.10;29.10;;;;;;5037193;28;20200;-74
2022/03/05 10:01:15;;;;;;;17.00;10.85;;;5.30;28.40;;;;;;5035825;28;20307;-75
2022/03/05 10:03:48;;;;;;;15.70;9.55;;;5.20;28.10;;;;;;5035602;28;20225;-75
2022/03/05 10:06:17;;;;;;;16.92;8.50;;;5.30;28.00;;;;;;5035928;28;20299;-75
2022/03/05 10:08:44;;;;;;;13.55;8.50;;;5.50;27.40;;;;;;5035597;28;20224;-75
2022/03/05 10:11:12;;;;;;;12.85;8.27;;;5.40;27.40;;;;;;5036476;28;20282;-75
2022/03/05 10:13:40;;;;;;;13.57;8.35;;;5.40;26.80;;;;;;5035297;28;20228;-74
2022/03/05 10:16:22;;;;;;;12.57;8.80;;;5.50;27.40;;;;;;5035314;28;20580;-75
2022/03/05 10:18:51;;;;;;;12.27;8.18;;;5.50;26.50;;;;;;5035870;28;20192;-74
2022/03/05 10:21:19;;;;;;;12.93;7.70;;;5.80;25.60;;;;;;5035728;28;20294;-75
2022/03/05 10:23:48;;;;;;;13.15;8.30;;;5.80;25.10;;;;;;5035449;28;20596;-75
2022/03/05 10:26:21;;;;;;;16.08;7.95;;;5.80;25.10;;;;;;5036622;28;20210;-74
2022/03/05 10:28:48;;;;;;;12.25;8.55;;;5.70;25.10;;;;;;5038585;28;20217;-76
2022/03/05 10:31:15;;;;;;;11.98;8.05;;;5.90;24.80;;;;;;5050546;28;20197;-75
2022/03/05 10:33:44;;;;;;;12.48;6.75;;;6.20;25.10;;;;;;5056377;28;20231;-75
2022/03/05 10:36:20;;;;;;;11.82;7.53;;;6.10;23.50;;;;;;5056263;28;20204;-75
2022/03/05 10:38:49;;;;;;;11.43;7.07;;;6.30;23.20;;;;;;5056802;28;20258;-75
2022/03/05 10:41:17;;;;;;;9.80;6.80;;;6.10;22.30;;;;;;5053302;28;20236;-75
2022/03/05 10:43:45;;;;;;;11.70;8.00;;;6.10;23.00;;;;;;5050929;28;20323;-75
2022/03/05 10:46:12;;;;;;;9.15;6.00;;;6.10;23.20;;;;;;5051860;28;20204;-76
2022/03/05 10:48:41;;;;;;;10.15;6.00;;;6.10;21.70;;;;;;5052228;28;20233;-76
2022/03/05 10:51:14;;;;;;;8.85;6.10;;;6.00;21.80;;;;;;5051259;28;20235;-75
2022/03/05 10:53:46;;;;;;;6.53;4.25;;;6.20;20.60;;;;;;5038745;28;20268;-75
2022/03/05 10:56:28;;;;;;;8.40;4.90;;;6.10;19.90;;;;;;5034540;28;20215;-76
2022/03/05 10:59:04;;;;;;;9.25;6.15;;;6.30;20.00;;;;;;5034087;28;20239;-76
2022/03/05 11:01:32;;;;;;;7.63;4.72;;;6.40;20.70;;;;;;5033338;28;20190;-77
2022/03/05 11:04:00;;;;;;;6.15;4.85;;;6.60;20.20;;;;;;5016187;28;20233;-78
2022/03/05 11:06:28;;;;;;;5.53;4.30;;;6.50;19.30;;;;;;5032291;28;20213;-79
2022/03/05 11:08:56;;;;;;;8.30;4.72;;;6.50;17.60;;;;;;5034135;28;20234;-78
2022/03/05 11:11:23;;;;;;;7.53;5.15;;;6.60;18.20;;;;;;5033863;28;20703;-78
2022/03/05 11:13:50;;;;;;;6.32;4.75;;;6.60;18.80;;;;;;5036723;28;20217;-78
2022/03/05 11:16:17;;;;;;;7.30;4.70;;;6.50;17.10;;;;;;5035021;28;20237;-78
2022/03/05 11:18:44;;;;;;;7.50;5.18;;;6.50;18.30;;;;;;5035823;28;20206;-77
2022/03/05 11:21:12;;;;;;;7.97;5.30;;;6.70;18.70;;;;;;5036159;28;20209;-77
2022/03/05 11:23:44;;;;;;;5.03;4.07;;;6.70;18.10;;;;;;5037563;28;20249;-77
2022/03/05 11:26:13;;;;;;;6.43;4.95;;;6.80;16.20;;;;;;5036262;28;20241;-75
2022/03/05 11:28:46;;;;;;;6.35;4.53;;;6.70;16.20;;;;;;5036014;28;20225;-75
2022/03/05 11:31:18;;;;;;;7.82;5.43;;;6.70;16.90;;;;;;5037240;28;20600;-75
2022/03/05 11:33:47;;;;;;;10.63;6.43;;;6.90;18.00;;;;;;5043810;28;20321;-76
2022/03/05 11:36:26;;;;;;;7.93;6.35;;;7.00;18.70;;;;;;5051486;28;20242;-76
2022/03/05 11:39:12;;;;;;;11.20;6.30;;;7.20;19.10;;;;;;5049111;28;20211;-75
2022/03/05 11:41:56;;;;;;;10.73;8.02;;;7.30;19.10;;;;;;5046806;28;20205;-76
2022/03/05 11:44:26;;;;;;;8.60;7.70;;;7.00;20.00;;;;;;5044289;28;20237;-76
2022/03/05 11:47:27;;;;;;;8.55;6.35;;;7.20;20.60;;;;;;5023517;28;20322;-75
2022/03/05 11:50:16;;;;;;;13.50;7.05;;;7.30;20.10;;;;;;5018002;28;20321;-77
2022/03/05 11:53:07;;;;;;;7.40;6.10;;;7.30;19.70;;;;;;5022685;28;20305;-77
2022/03/05 11:55:41;;;;;;;13.65;8.70;;;7.70;19.70;;;;;;5029548;28;20210;-77
2022/03/05 11:58:34;;;;;;;10.23;6.97;;;7.40;19.90;;;;;;5036463;28;20667;-76
2022/03/05 12:01:35;;;;;;;12.30;8.10;;;7.40;20.70;;;;;;5035241;28;20214;-76
2022/03/05 12:04:18;;;;;;;10.65;7.30;;;7.70;20.40;;;;;;5036345;28;20736;-76
2022/03/05 12:06:46;;;;;;;10.30;6.57;;;7.90;20.00;;;;;;5039563;28;20214;-77
2022/03/05 12:09:37;;;;;;;9.13;6.05;;;7.60;19.10;;;;;;5038811;28;20301;-76
2022/03/05 12:12:07;;;;;;;10.35;6.35;;;7.40;19.00;;;;;;5046723;28;20214;-76
2022/03/05 12:15:12;;;;;;;9.20;6.72;;;7.50;19.20;;;;;;5049105;28;20504;-76
2022/03/05 12:17:42;;;;;;;9.32;6.93;;;7.40;19.00;;;;;;5038959;28;20217;-76
2022/03/05 12:20:11;;;;;;;10.05;6.57;;;7.60;19.10;;;;;;5036679;28;20684;-77
2022/03/05 12:22:50;;;;;;;8.13;6.25;;;7.70;18.50;;;;;;5034447;28;20234;-76
2022/03/05 12:25:18;;;;;;;10.70;6.63;;;7.60;18.20;;;;;;5035837;28;20640;-76
2022/03/05 12:27:50;;;;;;;10.35;8.30;;;7.30;18.10;;;;;;5035820;28;20214;-77
2022/03/05 12:30:18;;;;;;;15.75;7.70;;;7.50;18.80;;;;;;5035838;28;20225;-78
2022/03/05 12:32:47;;;;;;;9.52;8.32;;;7.90;18.50;;;;;;5034621;28;20214;-79
2022/03/05 12:35:17;;;;;;;10.15;7.18;;;7.90;18.20;;;;;;5034270;28;20305;-75
2022/03/05 12:37:44;;;;;;;10.50;7.53;;;8.10;18.70;;;;;;5037513;28;20245;-76
2022/03/05 12:40:13;;;;;;;12.48;7.43;;;8.10;18.70;;;;;;5038882;28;20273;-77
2022/03/05 12:42:42;;;;;;;8.55;6.57;;;8.10;18.20;;;;;;5037528;28;20241;-76
2022/03/05 12:45:15;;;;;;;9.27;7.15;;;7.70;18.50;;;;;;5040145;28;20222;-76
2022/03/05 12:47:42;;;;;;;11.18;7.20;;;7.50;18.10;;;;;;5046727;28;20262;-76
2022/03/05 12:50:24;;;;;;;8.98;7.00;;;7.50;18.90;;;;;;5051255;28;20232;-76
2022/03/05 12:53:04;;;;;;;11.32;6.05;;;7.60;18.60;;;;;;5051592;28;20195;-78